createdAt,value
2023-03-26T00:00:12.836Z,80.92
2023-03-26T00:03:17.345Z,81.33
2023-03-26T00:06:23.122Z,80.51
2023-03-26T00:09:25.948Z,79.52
2023-03-26T00:12:29.099Z,79.18
2023-03-26T00:15:33.265Z,78.70
2023-03-26T00:18:37.854Z,78.40
2023-03-26T00:21:41.486Z,78.49
2023-03-26T00:24:46.031Z,78.87
2023-03-26T00:27:49.649Z,79.24
2023-03-26T00:31:04.816Z,80.01
2023-03-26T00:34:07.415Z,81.45
2023-03-26T00:37:12.550Z,81.89
2023-03-26T00:40:15.458Z,82.97
2023-03-26T00:43:20.307Z,82.59
2023-03-26T00:46:26.937Z,83.62
2023-03-26T00:49:30.744Z,83.99
2023-03-26T00:52:36.156Z,83.52
2023-03-26T00:55:40.563Z,83.26
2023-03-26T00:58:43.478Z,82.37
2023-03-26T01:01:47.154Z,81.81
2023-03-26T01:04:57.560Z,81.51
2023-03-26T01:08:15.156Z,81.43
2023-03-26T01:11:27.774Z,81.82
2023-03-26T01:14:30.905Z,81.16
2023-03-26T01:17:37.879Z,80.65
2023-03-26T01:20:46.825Z,80.71
2023-03-26T01:24:10.133Z,81.03
2023-03-26T01:27:34.773Z,80.83
2023-03-26T01:30:49.646Z,80.60
2023-03-26T01:34:02.776Z,80.35
2023-03-26T01:37:18.444Z,80.43
2023-03-26T01:40:38.723Z,80.02
2023-03-26T01:43:47.690Z,79.56
2023-03-26T01:46:51.475Z,79.97
2023-03-26T01:49:54.191Z,79.62
2023-03-26T01:52:57.483Z,79.27
2023-03-26T01:56:12.797Z,79.19
2023-03-26T01:59:49.043Z,79.13
2023-03-26T02:03:22.611Z,78.63
2023-03-26T02:06:51.534Z,78.31
2023-03-26T02:10:00.668Z,77.85
2023-03-26T02:13:06.132Z,78.15
2023-03-26T02:16:14.334Z,78.41
2023-03-26T02:19:21.625Z,79.15
2023-03-26T02:22:30.111Z,79.25
2023-03-26T02:25:35.282Z,79.53
2023-03-26T02:28:38.793Z,80.63
2023-03-26T02:31:43.484Z,81.43
2023-03-26T02:34:47.388Z,83.04
2023-03-26T02:37:51.021Z,83.18
2023-03-26T02:40:55.289Z,82.98
2023-03-26T02:43:59.490Z,83.05
2023-03-26T02:47:03.582Z,84.75
2023-03-26T02:50:09.677Z,85.84
2023-03-26T02:53:14.356Z,86.28
2023-03-26T02:56:18.559Z,86.87
2023-03-26T02:59:23.079Z,86.19
2023-03-26T03:02:29.422Z,85.72
2023-03-26T03:05:33.161Z,85.60
2023-03-26T03:08:37.053Z,85.63
2023-03-26T03:11:44.759Z,85.43
2023-03-26T03:14:47.482Z,85.18
2023-03-26T03:17:50.573Z,85.78
2023-03-26T03:20:56.797Z,86.22
2023-03-26T03:24:00.529Z,86.67
2023-03-26T03:27:04.181Z,87.97
2023-03-26T03:30:08.051Z,88.97
2023-03-26T03:33:13.189Z,89.33
2023-03-26T03:36:20.573Z,89.46
2023-03-26T03:39:24.020Z,89.84
2023-03-26T03:42:30.203Z,89.58
2023-03-26T03:45:32.971Z,89.93
2023-03-26T03:48:41.074Z,89.82
2023-03-26T03:51:44.896Z,90.88
2023-03-26T03:54:48.379Z,90.56
2023-03-26T03:57:52.596Z,91.00
2023-03-26T04:01:04.436Z,90.92
2023-03-26T04:04:10.423Z,91.46
2023-03-26T04:07:13.662Z,91.61
2023-03-26T04:10:17.643Z,91.08
2023-03-26T04:13:22.254Z,91.02
2023-03-26T04:16:25.970Z,91.05
2023-03-26T04:19:28.683Z,90.93
2023-03-26T04:22:35.118Z,91.60
2023-03-26T04:25:39.455Z,92.00
2023-03-26T04:28:50.895Z,92.27
2023-03-26T04:32:07.020Z,92.71
2023-03-26T04:35:14.908Z,94.28
2023-03-26T04:38:18.616Z,94.18
2023-03-26T04:41:27.845Z,96.03
2023-03-26T04:44:31.876Z,94.98
2023-03-26T04:47:37.159Z,94.69
2023-03-26T04:50:45.421Z,92.08
2023-03-26T04:53:52.604Z,89.67
2023-03-26T04:57:04.274Z,87.18
2023-03-26T05:00:19.650Z,86.49
2023-03-26T05:03:22.803Z,80.87
2023-03-26T05:06:28.799Z,79.19
2023-03-26T05:09:32.048Z,75.64
2023-03-26T05:12:36.767Z,72.30
2023-03-26T05:15:39.540Z,74.08
2023-03-26T05:18:42.597Z,73.05
2023-03-26T05:21:46.068Z,70.04
2023-03-26T05:24:49.116Z,67.02
2023-03-26T05:27:51.724Z,64.90
2023-03-26T05:30:57.639Z,64.62
2023-03-26T05:34:01.050Z,66.23
2023-03-26T05:37:04.581Z,63.88
2023-03-26T05:40:12.328Z,66.60
2023-03-26T05:43:16.656Z,70.27
2023-03-26T05:46:21.959Z,67.47
2023-03-26T05:49:26.304Z,63.97
2023-03-26T05:52:29.894Z,63.19
2023-03-26T05:55:34.904Z,68.36
2023-03-26T05:58:42.115Z,62.27
2023-03-26T06:01:56.118Z,59.96
2023-03-26T06:05:01.283Z,57.40
2023-03-26T06:08:07.849Z,57.45
2023-03-26T06:11:13.041Z,56.43
2023-03-26T06:14:16.026Z,52.23
2023-03-26T06:17:20.211Z,51.01
2023-03-26T06:20:24.313Z,48.93
2023-03-26T06:23:28.174Z,47.60
2023-03-26T06:26:31.368Z,47.12
2023-03-26T06:29:34.444Z,46.85
2023-03-26T06:32:38.006Z,46.71
2023-03-26T06:35:42.873Z,45.37
2023-03-26T06:38:46.196Z,44.02
2023-03-26T06:41:49.384Z,43.68
2023-03-26T06:44:55.338Z,44.78
2023-03-26T06:48:00.362Z,43.08
2023-03-26T06:51:04.072Z,41.61
2023-03-26T06:54:07.057Z,42.44
2023-03-26T06:57:10.999Z,41.03
2023-03-26T07:00:15.782Z,40.93
2023-03-26T07:03:22.020Z,39.35
2023-03-26T07:06:39.372Z,39.95
2023-03-26T07:10:05.343Z,38.85
2023-03-26T07:13:10.993Z,38.98
2023-03-26T07:16:15.295Z,39.16
2023-03-26T07:19:18.576Z,40.59
2023-03-26T07:22:23.900Z,43.88
2023-03-26T07:25:29.170Z,44.29
2023-03-26T07:28:41.973Z,46.91
2023-03-26T07:32:09.652Z,49.13
2023-03-26T07:35:35.420Z,50.14
2023-03-26T07:38:49.109Z,46.96
2023-03-26T07:42:22.336Z,44.69
2023-03-26T07:45:39.535Z,44.01
2023-03-26T07:48:47.854Z,43.63
2023-03-26T07:51:51.289Z,43.63
2023-03-26T07:54:56.907Z,43.68
2023-03-26T07:58:12.381Z,44.68
2023-03-26T08:01:28.290Z,47.18
2023-03-26T08:04:32.236Z,48.91
2023-03-26T08:08:09.367Z,48.26
2023-03-26T08:11:25.309Z,49.94
2023-03-26T08:14:48.101Z,49.36
2023-03-26T08:18:16.460Z,45.95
2023-03-26T08:21:49.474Z,45.22
2023-03-26T08:24:59.382Z,46.45
2023-03-26T08:28:39.390Z,47.13
2023-03-26T08:31:45.965Z,48.37
2023-03-26T08:34:49.677Z,49.19
2023-03-26T08:37:53.307Z,48.74
2023-03-26T08:41:11.533Z,48.80
2023-03-26T08:44:36.577Z,49.80
2023-03-26T08:47:51.578Z,51.44
2023-03-26T08:51:34.745Z,52.25
2023-03-26T08:54:52.483Z,52.30
2023-03-26T08:58:14.194Z,49.26
2023-03-26T09:01:42.821Z,47.51
2023-03-26T09:05:11.132Z,47.05
2023-03-26T09:08:35.209Z,42.00
2023-03-26T09:11:40.901Z,39.07
2023-03-26T09:15:05.551Z,41.25
2023-03-26T09:18:11.555Z,38.42
2023-03-26T09:21:33.049Z,39.18
2023-03-26T09:24:51.317Z,40.01
2023-03-26T09:28:16.350Z,41.99
2023-03-26T09:31:34.744Z,38.52
2023-03-26T09:34:40.662Z,41.59
2023-03-26T09:37:57.541Z,41.88
2023-03-26T09:41:02.516Z,43.30
2023-03-26T09:44:08.488Z,40.16
2023-03-26T09:47:39.271Z,40.38
2023-03-26T09:50:55.221Z,39.06
2023-03-26T09:54:28.396Z,42.45
2023-03-26T09:57:31.916Z,42.75
2023-03-26T10:00:49.775Z,39.76
2023-03-26T10:04:06.930Z,38.85
2023-03-26T10:07:43.678Z,41.12
2023-03-26T10:11:24.053Z,39.37
2023-03-26T10:14:40.813Z,39.34
2023-03-26T10:18:27.070Z,39.78
2023-03-26T10:21:48.523Z,42.08
2023-03-26T10:25:22.333Z,44.14
2023-03-26T10:28:35.411Z,44.00
2023-03-26T10:31:59.933Z,46.47
2023-03-26T10:35:20.488Z,61.06
2023-03-26T10:38:42.237Z,60.15
2023-03-26T10:41:54.560Z,68.73
2023-03-26T10:45:27.342Z,63.01
2023-03-26T10:48:43.078Z,66.93
2023-03-26T10:51:57.169Z,72.92
2023-03-26T10:55:24.315Z,73.87
2023-03-26T10:58:49.307Z,66.70
2023-03-26T11:02:29.349Z,59.41
2023-03-26T11:05:42.916Z,58.16
2023-03-26T11:09:12.661Z,56.31
2023-03-26T11:12:53.227Z,54.69
2023-03-26T11:16:06.613Z,56.01
2023-03-26T11:19:35.454Z,57.12
2023-03-26T11:22:48.956Z,58.90
2023-03-26T11:26:04.219Z,58.23
2023-03-26T11:29:30.987Z,59.71
2023-03-26T11:32:45.935Z,59.72
2023-03-26T11:35:51.674Z,54.72
2023-03-26T11:38:59.763Z,53.21
2023-03-26T11:42:11.258Z,57.17
2023-03-26T11:45:24.221Z,55.18
2023-03-26T11:48:43.289Z,53.92
2023-03-26T11:51:49.741Z,53.47
2023-03-26T11:59:08.163Z,49.45
2023-03-26T12:02:42.982Z,45.62
2023-03-26T12:06:27.178Z,42.04
2023-03-26T12:10:23.472Z,44.25
2023-03-26T12:13:39.398Z,45.79
2023-03-26T12:17:15.764Z,48.19
2023-03-26T12:24:50.240Z,42.79
2023-03-26T12:28:19.878Z,41.70
2023-03-26T12:31:27.519Z,43.48
2023-03-26T12:34:37.798Z,45.30
2023-03-26T12:37:44.026Z,42.71
2023-03-26T12:41:07.500Z,42.72
2023-03-26T12:44:46.871Z,41.45
2023-03-26T12:48:00.459Z,40.68
2023-03-26T12:51:12.576Z,42.48
2023-03-26T12:54:45.642Z,39.60
2023-03-26T12:58:17.688Z,39.00
2023-03-26T13:01:34.066Z,37.24
2023-03-26T13:04:46.940Z,35.64
2023-03-26T13:08:25.166Z,35.88
2023-03-26T13:11:46.065Z,35.67
2023-03-26T13:15:03.363Z,34.04
2023-03-26T13:18:50.006Z,35.64
2023-03-26T13:22:12.387Z,37.01
2023-03-26T13:25:53.186Z,37.17
2023-03-26T13:29:20.388Z,37.84
2023-03-26T13:32:51.511Z,37.33
2023-03-26T13:36:22.405Z,36.50
2023-03-26T13:39:37.592Z,36.37
2023-03-26T13:43:23.100Z,35.89
2023-03-26T13:46:36.585Z,34.89
2023-03-26T13:49:50.212Z,34.03
2023-03-26T13:52:59.073Z,36.33
2023-03-26T13:56:02.128Z,35.23
2023-03-26T13:59:19.964Z,35.06
2023-03-26T14:02:49.480Z,34.98
2023-03-26T14:05:56.214Z,35.29
2023-03-26T14:09:19.086Z,35.08
2023-03-26T14:13:02.830Z,35.24
2023-03-26T14:16:20.785Z,34.87
2023-03-26T14:19:33.903Z,34.04
2023-03-26T14:22:58.533Z,33.01
2023-03-26T14:26:20.513Z,32.96
2023-03-26T14:29:56.333Z,33.11
2023-03-26T14:33:28.836Z,31.95
2023-03-26T14:36:37.724Z,32.45
2023-03-26T14:40:15.243Z,32.32
2023-03-26T14:43:24.932Z,31.42
2023-03-26T14:46:38.883Z,31.47
2023-03-26T14:50:15.782Z,31.99
2023-03-26T14:53:24.467Z,32.58
2023-03-26T14:56:45.926Z,31.65
2023-03-26T15:00:28.560Z,32.51
2023-03-26T15:04:02.540Z,32.18
2023-03-26T15:07:36.921Z,31.48
2023-03-26T15:11:22.809Z,30.79
2023-03-26T15:14:46.653Z,30.67
2023-03-26T15:18:21.710Z,32.52
2023-03-26T15:22:13.593Z,33.62
2023-03-26T15:25:36.194Z,34.15
2023-03-26T15:29:24.976Z,33.80
2023-03-26T15:32:43.223Z,34.10
2023-03-26T15:36:01.705Z,34.86
2023-03-26T15:39:38.444Z,35.13
2023-03-26T15:43:09.678Z,35.15
2023-03-26T15:46:51.051Z,34.91
2023-03-26T15:50:00.983Z,34.89
2023-03-26T15:53:28.750Z,35.10
2023-03-26T15:56:55.895Z,35.17
2023-03-26T16:00:15.397Z,35.64
2023-03-26T16:03:31.574Z,35.81
2023-03-26T16:07:04.160Z,35.64
2023-03-26T16:10:30.319Z,36.17
2023-03-26T16:13:41.618Z,36.82
2023-03-26T16:17:02.515Z,37.49
2023-03-26T16:20:31.614Z,37.62
2023-03-26T16:23:47.730Z,38.01
2023-03-26T16:27:08.221Z,37.89
2023-03-26T16:30:27.971Z,37.86
2023-03-26T16:33:39.197Z,37.90
2023-03-26T16:36:43.835Z,37.10
2023-03-26T16:39:47.406Z,37.53
2023-03-26T16:43:22.193Z,37.54
2023-03-26T16:46:36.810Z,37.92
2023-03-26T16:50:08.603Z,38.31
2023-03-26T16:54:04.524Z,38.54
2023-03-26T16:57:28.085Z,38.95
2023-03-26T17:00:49.342Z,39.02
2023-03-26T17:04:23.399Z,39.42
2023-03-26T17:07:40.741Z,39.66
2023-03-26T17:11:09.639Z,40.12
2023-03-26T17:14:35.020Z,40.43
2023-03-26T17:17:57.239Z,40.43
2023-03-26T17:21:03.618Z,40.59
2023-03-26T17:24:25.329Z,40.76
2023-03-26T17:27:39.162Z,41.02
2023-03-26T17:31:04.564Z,41.01
2023-03-26T17:34:34.198Z,41.20
2023-03-26T17:37:44.792Z,41.57
2023-03-26T17:40:51.822Z,41.51
2023-03-26T17:43:57.262Z,41.77
2023-03-26T17:47:01.453Z,42.02
2023-03-26T17:50:22.746Z,42.12
2023-03-26T17:53:31.935Z,42.49
2023-03-26T17:56:41.292Z,42.69
2023-03-26T17:59:45.563Z,42.89
2023-03-26T18:03:03.401Z,42.90
2023-03-26T18:06:13.294Z,43.42
2023-03-26T18:09:43.620Z,42.89
2023-03-26T18:13:15.335Z,43.39
2023-03-26T18:16:38.119Z,43.23
2023-03-26T18:19:56.300Z,43.64
2023-03-26T18:23:10.068Z,43.83
2023-03-26T18:26:19.180Z,43.79
2023-03-26T18:29:29.006Z,44.13
2023-03-26T18:32:33.779Z,44.38
2023-03-26T18:35:52.207Z,44.75
2023-03-26T18:39:02.203Z,44.71
2023-03-26T18:42:06.723Z,44.48
2023-03-26T18:45:29.720Z,44.74
2023-03-26T18:48:32.970Z,44.94
2023-03-26T18:51:46.407Z,45.01
2023-03-26T18:54:54.607Z,45.23
2023-03-26T18:57:58.660Z,44.95
2023-03-26T19:01:20.057Z,45.13
2023-03-26T19:04:33.476Z,45.27
2023-03-26T19:07:38.268Z,45.42
2023-03-26T19:10:43.602Z,45.60
2023-03-26T19:13:59.442Z,45.81
2023-03-26T19:17:07.175Z,45.36
2023-03-26T19:20:19.536Z,45.14
2023-03-26T19:23:27.738Z,44.99
2023-03-26T19:26:31.685Z,44.76
2023-03-26T19:29:37.000Z,44.98
2023-03-26T19:32:55.494Z,45.05
2023-03-26T19:36:23.641Z,45.26
2023-03-26T19:42:44.735Z,45.25
2023-03-26T19:46:00.053Z,45.49
2023-03-26T19:49:06.999Z,45.68
2023-03-26T19:52:16.134Z,46.11
2023-03-26T19:55:24.213Z,46.11
2023-03-26T19:58:28.102Z,46.43
2023-03-26T20:01:32.173Z,46.91
2023-03-26T20:04:39.235Z,46.52
2023-03-26T20:07:45.581Z,46.82
2023-03-26T20:10:49.557Z,46.65
2023-03-26T20:13:52.701Z,47.10
2023-03-26T20:16:55.731Z,46.77
2023-03-26T20:19:59.921Z,46.65
2023-03-26T20:23:03.959Z,47.16
2023-03-26T20:26:15.214Z,46.77
2023-03-26T20:29:19.890Z,47.04
2023-03-26T20:32:26.333Z,47.17
2023-03-26T20:35:36.252Z,46.78
2023-03-26T20:38:40.992Z,47.45
2023-03-26T20:41:47.861Z,47.65
2023-03-26T20:44:50.502Z,47.78
2023-03-26T20:48:00.453Z,48.34
2023-03-26T20:51:07.280Z,47.73
2023-03-26T20:54:17.727Z,48.00
2023-03-26T20:57:21.094Z,48.04
2023-03-26T21:00:24.816Z,47.85
2023-03-26T21:03:27.771Z,47.65
2023-03-26T21:06:32.172Z,47.79
2023-03-26T21:09:35.748Z,47.14
2023-03-26T21:12:52.393Z,47.03
2023-03-26T21:15:55.823Z,47.10
2023-03-26T21:18:59.130Z,47.17
2023-03-26T21:22:17.668Z,47.59
2023-03-26T21:25:41.962Z,48.03
2023-03-26T21:28:49.689Z,48.57
2023-03-26T21:31:55.066Z,48.89
2023-03-26T21:34:59.508Z,50.00
2023-03-26T21:38:06.393Z,51.04
2023-03-26T21:41:31.248Z,53.82
2023-03-26T21:44:34.658Z,56.81
2023-03-26T21:47:37.783Z,59.31
2023-03-26T21:50:41.067Z,63.88
2023-03-26T21:53:44.212Z,65.19
2023-03-26T21:57:04.478Z,66.49
2023-03-26T22:00:15.686Z,69.07
2023-03-26T22:03:31.589Z,69.46
2023-03-26T22:06:43.901Z,70.08
2023-03-26T22:09:47.594Z,71.20
2023-03-26T22:12:50.992Z,72.29
2023-03-26T22:15:54.241Z,72.67
2023-03-26T22:18:57.025Z,76.17
2023-03-26T22:22:00.616Z,75.83
2023-03-26T22:25:03.366Z,76.07
2023-03-26T22:28:06.632Z,78.44
2023-03-26T22:31:09.766Z,82.14
2023-03-26T22:34:13.182Z,84.13
2023-03-26T22:37:16.309Z,85.69
2023-03-26T22:40:20.780Z,88.79
2023-03-26T22:43:23.567Z,91.84
2023-03-26T22:46:26.724Z,97.00
2023-03-26T22:49:31.473Z,100.00
2023-03-26T22:52:36.699Z,100.00
2023-03-26T22:55:39.394Z,100.00
2023-03-26T22:58:43.051Z,100.00
2023-03-26T23:01:46.846Z,100.00
2023-03-26T23:04:50.737Z,100.00
2023-03-26T23:07:53.633Z,100.00
2023-03-26T23:10:58.847Z,100.00
2023-03-26T23:14:02.005Z,100.00
2023-03-26T23:17:14.426Z,100.00
2023-03-26T23:20:17.478Z,100.00
2023-03-26T23:23:27.736Z,100.00
2023-03-26T23:26:43.965Z,100.00
2023-03-26T23:29:50.889Z,100.00
2023-03-26T23:32:54.694Z,100.00
2023-03-26T23:36:00.106Z,100.00
2023-03-26T23:39:04.903Z,100.00
2023-03-26T23:42:08.448Z,100.00
2023-03-26T23:45:13.061Z,100.00
2023-03-26T23:48:22.311Z,100.00
2023-03-26T23:51:25.207Z,100.00
2023-03-26T23:54:30.086Z,100.00
2023-03-26T23:57:33.247Z,100.00
